.
WxDataArchive / Data Records for 2014-04-25
2014-04-24 April 2014 2014-04-26

Data Records for Friday, 25 April 2014

Time	Temp	Chill	HIndex	Humid	Dewpt	 Wind 	HiWind	WindDir	Rain 	Barom
-----	----	-----	------	-----	-----	------	------	-------	-----	-----
00:00	45.5	43.7	45.5	54	29.8	4	8	90	0.00	29.770 
00:05	45.4	45.4	45.4	55	30.2	2	5	90	0.00	29.770 
00:10	45.2	45.2	45.2	55	30.0	3	6	90	0.00	29.770 
00:15	45.1	45.1	45.1	55	29.9	2	5	90	0.00	29.767 
00:20	45.1	45.1	45.1	55	29.9	3	6	90	0.00	29.767 
00:25	45.1	45.1	45.1	56	30.4	3	5	90	0.00	29.767 
00:30	45.1	45.1	45.1	56	30.4	3	7	90	0.00	29.759 
00:35	45.1	45.1	45.1	55	29.9	3	9	90	0.00	29.759 
00:40	44.9	44.9	44.9	56	30.2	2	7	90	0.00	29.759 
00:45	44.9	44.9	44.9	56	30.2	2	5	90	0.00	29.756 
00:50	44.9	44.9	44.9	56	30.2	2	6	90	0.00	29.756 
00:55	44.9	44.9	44.9	56	30.2	2	7	90	0.00	29.756 
01:00	44.9	44.9	44.9	56	30.2	2	6	90	0.00	29.749 
01:05	44.9	44.9	44.9	56	30.2	3	10	90	0.00	29.749 
01:10	44.9	44.9	44.9	56	30.2	3	6	90	0.00	29.749 
01:15	45.1	45.1	45.1	56	30.4	3	10	90	0.00	29.735 
01:20	45.1	45.1	45.1	56	30.4	3	6	90	0.00	29.735 
01:25	45.2	45.2	45.2	56	30.4	3	9	90	0.00	29.735 
01:30	45.2	45.2	45.2	56	30.4	2	5	90	0.00	29.730 
01:35	45.2	45.2	45.2	56	30.4	3	7	90	0.00	29.730 
01:40	45.4	45.4	45.4	56	30.6	3	6	90	0.00	29.730 
01:45	45.4	45.4	45.4	56	30.6	2	5	90	0.00	29.721 
01:50	45.5	45.5	45.5	56	30.7	1	5	90	0.00	29.721 
01:55	45.5	45.5	45.5	57	31.2	2	4	90	0.00	29.721 
02:00	45.5	45.5	45.5	57	31.2	2	5	90	0.00	29.708 
02:05	45.5	45.5	45.5	57	31.2	2	7	90	0.00	29.708 
02:10	45.7	45.7	45.7	56	30.9	2	5	112	0.00	29.708 
02:15	45.7	45.7	45.7	57	31.3	2	5	90	0.00	29.702 
02:20	45.7	45.7	45.7	57	31.3	1	4	90	0.00	29.702 
02:25	45.7	45.7	45.7	57	31.3	2	6	90	0.00	29.702 
02:30	45.7	45.7	45.7	57	31.3	2	5	112	0.00	29.688 
02:35	45.8	45.8	45.8	57	31.4	2	7	90	0.00	29.688 
02:40	45.8	45.8	45.8	57	31.4	2	5	90	0.00	29.688 
02:45	45.8	45.8	45.8	57	31.4	2	5	90	0.00	29.675 
02:50	45.8	45.8	45.8	58	31.9	2	4	112	0.00	29.675 
02:55	45.8	45.8	45.8	58	31.9	2	4	112	0.00	29.675 
03:00	45.8	45.8	45.8	57	31.4	2	6	90	0.00	29.663 
03:05	45.8	45.8	45.8	57	31.4	1	9	90	0.00	29.663 
03:10	45.8	45.8	45.8	58	31.9	1	5	90	0.00	29.663 
03:15	45.8	45.8	45.8	58	31.9	2	6	112	0.00	29.656 
03:20	45.8	45.8	45.8	58	31.9	1	4	112	0.00	29.656 
03:25	45.8	45.8	45.8	58	31.9	1	5	112	0.00	29.656 
03:30	45.8	45.8	45.8	58	31.9	1	6	112	0.00	29.653 
03:35	45.8	45.8	45.8	58	31.9	1	4	90	0.00	29.653 
03:40	46.0	46.0	46.0	58	32.1	2	5	90	0.00	29.653 
03:45	46.0	46.0	46.0	57	31.6	2	6	90	0.00	29.646 
03:50	46.1	46.1	46.1	57	31.7	1	3	112	0.00	29.646 
03:55	46.1	46.1	46.1	57	31.7	1	3	112	0.00	29.646 
04:00	46.1	46.1	46.1	57	31.7	0	2	112	0.00	29.655 
04:05	46.1	46.1	46.1	58	32.2	0	2	112	0.00	29.655 
04:10	46.0	46.0	46.0	58	32.1	0	1	112	0.00	29.655 
04:15	46.0	46.0	46.0	58	32.1	0	0	---	0.00	29.650 
04:20	46.0	46.0	46.0	58	32.1	0	1	112	0.00	29.650 
04:25	46.0	46.0	46.0	58	32.1	0	2	112	0.00	29.650 
04:30	46.0	46.0	46.0	59	32.5	0	1	112	0.00	29.641 
04:35	45.8	45.8	45.8	59	32.3	0	3	112	0.00	29.641 
04:40	45.8	45.8	45.8	59	32.3	0	1	112	0.00	29.641 
04:45	45.8	45.8	45.8	59	32.3	0	1	112	0.00	29.637 
04:50	45.7	45.7	45.7	59	32.2	0	1	112	0.00	29.637 
04:55	45.7	45.7	45.7	59	32.2	0	2	112	0.00	29.637 
05:00	45.7	45.7	45.7	60	32.6	0	1	112	0.00	29.633 
05:05	45.7	45.7	45.7	59	32.2	0	2	112	0.00	29.633 
05:10	45.7	45.7	45.7	59	32.2	0	2	112	0.00	29.633 
05:15	45.7	45.7	45.7	61	33.0	0	2	112	0.00	29.637 
05:20	45.7	45.7	45.7	63	33.8	0	2	112	0.00	29.637 
05:25	45.5	45.5	45.5	66	34.8	0	2	112	0.00	29.637 
05:30	45.2	45.2	45.2	68	35.3	0	0	---	0.00	29.631 
05:35	45.1	45.1	45.1	69	35.5	0	0	---	0.00	29.631 
05:40	44.9	44.9	44.9	71	36.1	0	0	---	0.01	29.631 
05:45	44.8	44.8	44.8	73	36.7	0	1	112	0.00	29.633 
05:50	44.5	44.5	44.5	74	36.7	0	2	112	0.01	29.633 
05:55	44.2	44.2	44.2	77	37.5	0	1	112	0.00	29.633 
06:00	44.1	44.1	44.1	78	37.7	0	0	---	0.01	29.626 
06:05	43.8	43.8	43.8	80	38.0	0	1	112	0.00	29.626 
06:10	43.8	43.8	43.8	82	38.7	0	1	112	0.01	29.626 
06:15	43.6	43.6	43.6	82	38.5	0	1	112	0.00	29.628 
06:20	43.5	43.5	43.5	83	38.7	0	1	112	0.01	29.628 
06:25	43.5	43.5	43.5	83	38.7	0	1	112	0.00	29.628 
06:30	43.3	43.3	43.3	84	38.8	0	1	112	0.02	29.628 
06:35	43.3	43.3	43.3	84	38.8	0	0	---	0.01	29.628 
06:40	43.1	43.1	43.1	84	38.6	0	1	112	0.01	29.628 
06:45	42.9	42.9	42.9	85	38.7	0	1	112	0.01	29.626 
06:50	42.9	42.9	42.9	86	39.0	0	1	112	0.01	29.626 
06:55	42.8	42.8	42.8	87	39.2	0	2	112	0.01	29.626 
07:00	42.6	42.6	42.6	87	39.0	0	1	112	0.00	29.630 
07:05	42.6	42.6	42.6	88	39.3	0	2	112	0.01	29.630 
07:10	42.6	42.6	42.6	88	39.3	0	2	112	0.00	29.630 
07:15	42.6	42.6	42.6	88	39.3	0	1	112	0.00	29.627 
07:20	42.6	42.6	42.6	89	39.6	0	2	112	0.01	29.627 
07:25	42.6	42.6	42.6	89	39.6	0	1	112	0.00	29.627 
07:30	42.6	42.6	42.6	89	39.6	0	0	---	0.01	29.629 
07:35	42.8	42.8	42.8	89	39.8	0	0	---	0.01	29.629 
07:40	42.8	42.8	42.8	89	39.8	0	0	---	0.00	29.629 
07:45	42.8	42.8	42.8	90	40.1	0	0	---	0.01	29.634 
07:50	42.8	42.8	42.8	90	40.1	0	0	---	0.01	29.634 
07:55	42.8	42.8	42.8	90	40.1	0	0	---	0.01	29.634 
08:00	42.8	42.8	42.8	90	40.1	0	0	---	0.02	29.637 
08:05	42.9	42.9	42.9	90	40.2	0	1	112	0.01	29.637 
08:10	42.9	42.9	42.9	90	40.2	0	1	112	0.00	29.637 
08:15	43.1	43.1	43.1	91	40.7	0	2	112	0.01	29.640 
08:20	42.9	42.9	42.9	91	40.5	1	3	45	0.01	29.640 
08:25	43.1	43.1	43.1	91	40.7	0	2	45	0.01	29.640 
08:30	42.9	42.9	42.9	91	40.5	0	1	45	0.01	29.642 
08:35	43.1	43.1	43.1	92	40.9	0	2	45	0.00	29.642 
08:40	43.1	43.1	43.1	92	40.9	0	2	45	0.01	29.642 
08:45	43.2	43.2	43.2	92	41.0	0	2	45	0.00	29.646 
08:50	43.2	43.2	43.2	92	41.0	0	3	45	0.01	29.646 
08:55	43.2	43.2	43.2	92	41.0	0	2	45	0.01	29.646 
09:00	43.1	43.1	43.1	92	40.9	0	2	45	0.00	29.646 
09:05	43.1	43.1	43.1	92	40.9	0	1	45	0.01	29.646 
09:10	43.1	43.1	43.1	92	40.9	0	1	45	0.01	29.646 
09:15	43.1	43.1	43.1	92	40.9	0	0	---	0.00	29.642 
09:20	43.2	43.2	43.2	92	41.0	0	0	---	0.00	29.642 
09:25	43.3	43.3	43.3	93	41.4	0	1	45	0.01	29.642 
09:30	43.3	43.3	43.3	93	41.4	0	0	---	0.00	29.650 
09:35	43.5	43.5	43.5	93	41.6	0	0	---	0.00	29.650 
09:40	43.6	43.6	43.6	93	41.7	0	0	---	0.00	29.650 
09:45	43.9	43.9	43.9	93	42.0	0	0	---	0.01	29.649 
09:50	44.3	44.3	44.3	93	42.4	0	0	---	0.00	29.649 
09:55	44.6	44.6	44.6	93	42.7	0	1	45	0.00	29.649 
10:00	44.8	44.8	44.8	93	42.9	0	1	45	0.00	29.652 
10:05	45.1	45.1	45.1	93	43.2	0	1	45	0.00	29.652 
10:10	45.1	45.1	45.1	93	43.2	0	1	45	0.00	29.652 
10:15	45.1	45.1	45.1	93	43.2	0	2	45	0.00	29.661 
10:20	45.2	45.2	45.2	94	43.6	0	2	45	0.00	29.661 
10:25	45.5	45.5	45.5	94	43.9	0	3	45	0.00	29.661 
10:30	45.7	45.7	45.7	94	44.1	0	2	45	0.00	29.663 
10:35	46.0	46.0	46.0	94	44.4	0	2	45	0.00	29.663 
10:40	46.0	46.0	46.0	93	44.1	0	2	45	0.00	29.663 
10:45	45.8	45.8	45.8	93	43.9	0	1	45	0.00	29.666 
10:50	46.0	46.0	46.0	93	44.1	0	1	45	0.00	29.666 
10:55	46.0	46.0	46.0	94	44.4	0	2	45	0.00	29.666 
11:00	46.1	46.1	46.1	93	44.2	0	2	45	0.00	29.672 
11:05	46.1	46.1	46.1	93	44.2	1	3	45	0.00	29.672 
11:10	46.2	46.2	46.2	94	44.6	0	1	45	0.00	29.672 
11:15	46.4	46.4	46.4	94	44.8	1	2	45	0.00	29.682 
11:20	46.7	46.7	46.7	94	45.1	1	3	45	0.00	29.682 
11:25	47.0	47.0	47.0	94	45.4	2	4	292	0.00	29.682 
11:30	47.4	47.4	47.4	94	45.8	2	5	315	0.00	29.680 
11:35	47.9	47.9	47.9	94	46.3	2	4	315	0.00	29.680 
11:40	48.2	48.2	48.2	94	46.6	3	7	315	0.00	29.680 
11:45	48.6	48.6	48.6	93	46.7	3	6	315	0.00	29.684 
11:50	48.9	48.9	48.9	93	47.0	2	6	270	0.00	29.684 
11:55	49.2	49.2	49.2	92	47.0	3	9	315	0.00	29.684 
12:00	49.2	49.2	49.2	91	46.7	3	9	338	0.00	29.698 
12:05	49.4	49.4	49.4	89	46.3	3	9	292	0.00	29.698 
12:10	49.5	49.5	49.5	88	46.1	3	7	338	0.00	29.698 
12:15	49.8	49.8	49.8	88	46.4	3	7	270	0.00	29.705 
12:20	49.9	49.9	49.9	87	46.2	3	8	248	0.00	29.705 
12:25	50.1	50.1	50.1	86	46.1	3	10	292	0.00	29.705 
12:30	50.1	50.1	50.1	85	45.8	3	7	270	0.00	29.712 
12:35	49.9	48.8	49.9	84	45.3	4	11	292	0.00	29.712 
12:40	49.9	48.8	49.9	84	45.3	4	13	270	0.00	29.712 
12:45	49.9	49.9	49.9	84	45.3	3	7	292	0.00	29.719 
12:50	50.1	50.1	50.1	83	45.1	3	7	270	0.00	29.719 
12:55	50.4	50.4	50.4	83	45.4	3	7	292	0.00	29.719 
13:00	50.5	50.5	50.5	83	45.5	3	9	315	0.00	29.724 
13:05	50.4	50.4	50.4	82	45.1	3	6	315	0.00	29.724 
13:10	50.2	50.2	50.2	82	44.9	3	10	315	0.00	29.724 
13:15	50.4	50.4	50.4	82	45.1	4	9	292	0.00	29.724 
13:20	50.7	50.7	50.7	82	45.4	3	9	270	0.00	29.724 
13:25	50.8	50.8	50.8	81	45.2	3	7	292	0.00	29.724 
13:30	51.3	51.3	51.3	82	46.0	3	6	270	0.00	29.727 
13:35	51.4	51.4	51.4	81	45.8	2	4	292	0.00	29.727 
13:40	51.3	51.3	51.3	81	45.7	3	6	270	0.00	29.727 
13:45	50.7	50.7	50.7	80	44.8	4	11	315	0.00	29.742 
13:50	50.7	50.7	50.7	81	45.1	3	9	292	0.00	29.742 
13:55	51.0	51.0	51.0	81	45.4	3	9	292	0.00	29.742 
14:00	51.3	51.3	51.3	81	45.7	3	7	270	0.00	29.743 
14:05	51.9	51.9	51.9	79	45.6	3	7	315	0.00	29.743 
14:10	52.5	52.5	52.5	77	45.5	4	9	270	0.00	29.743 
14:15	52.9	52.9	52.9	77	45.9	4	10	315	0.00	29.750 
14:20	53.3	53.3	53.3	73	44.9	5	9	292	0.00	29.750 
14:25	53.5	53.5	53.5	73	45.1	5	10	315	0.00	29.750 
14:30	54.4	54.4	54.4	71	45.2	3	10	292	0.00	29.753 
14:35	54.4	54.4	54.4	69	44.4	5	11	315	0.00	29.753 
14:40	55.1	55.1	55.1	70	45.5	3	7	315	0.00	29.753 
14:45	55.9	55.9	55.9	67	45.1	4	7	270	0.00	29.754 
14:50	55.6	55.6	55.6	65	44.0	5	10	315	0.00	29.754 
14:55	55.7	55.7	55.7	67	44.9	4	10	292	0.00	29.754 
15:00	56.0	56.0	56.0	62	43.2	6	12	292	0.00	29.766 
15:05	56.3	56.3	56.3	61	43.0	4	12	270	0.00	29.766 
15:10	56.9	56.9	56.9	61	43.6	3	9	338	0.00	29.766 
15:15	57.3	57.3	57.3	60	43.5	4	10	292	0.00	29.766 
15:20	57.5	57.5	57.5	59	43.3	5	10	292	0.00	29.766 
15:25	57.8	57.8	57.8	58	43.1	4	12	270	0.00	29.766 
15:30	58.3	58.3	58.3	55	42.2	4	7	292	0.00	29.770 
15:35	58.3	58.3	58.3	53	41.2	4	10	292	0.00	29.770 
15:40	58.6	58.6	58.6	53	41.5	4	12	292	0.00	29.770 
15:45	59.2	59.2	59.2	54	42.6	2	5	270	0.00	29.775 
15:50	59.6	59.6	59.6	54	42.9	3	9	270	0.00	29.775 
15:55	59.8	59.8	59.8	51	41.6	4	11	248	0.00	29.775 
16:00	59.9	59.9	59.9	49	40.7	3	6	292	0.00	29.774 
16:05	59.9	59.9	59.9	48	40.2	4	9	270	0.00	29.774 
16:10	59.5	59.5	59.5	48	39.8	5	10	270	0.00	29.774 
16:15	59.6	59.6	59.6	52	42.0	3	7	292	0.00	29.778 
16:20	59.9	59.9	59.9	49	40.7	4	10	270	0.00	29.778 
16:25	60.1	60.1	60.1	50	41.4	3	7	315	0.00	29.778 
16:30	60.2	60.2	60.2	49	41.0	3	6	315	0.00	29.781 
16:35	60.4	60.4	60.4	46	39.5	3	11	292	0.00	29.781 
16:40	60.2	60.2	60.2	46	39.3	4	9	270	0.00	29.781 
16:45	59.9	59.9	59.9	47	39.6	4	7	270	0.00	29.783 
16:50	60.2	60.2	60.2	46	39.3	4	9	248	0.00	29.783 
16:55	60.1	60.1	60.1	44	38.1	4	9	270	0.00	29.783 
17:00	60.1	60.1	60.1	45	38.7	4	7	270	0.00	29.790 
17:05	60.5	60.5	60.5	47	40.2	3	5	270	0.00	29.790 
17:10	60.4	60.4	60.4	43	37.8	5	16	315	0.00	29.790 
17:15	60.2	60.2	60.2	41	36.4	4	7	270	0.00	29.798 
17:20	60.2	60.2	60.2	44	38.2	3	10	270	0.00	29.798 
17:25	60.7	60.7	60.7	45	39.2	3	6	292	0.00	29.798 
17:30	60.7	60.7	60.7	43	38.1	4	7	270	0.00	29.798 
17:35	61.0	61.0	61.0	41	37.1	3	10	315	0.00	29.798 
17:40	60.7	60.7	60.7	40	36.2	4	12	315	0.00	29.798 
17:45	61.0	61.0	61.0	42	37.7	3	5	270	0.00	29.797 
17:50	61.0	61.0	61.0	41	37.1	4	10	270	0.00	29.797 
17:55	61.0	61.0	61.0	40	36.5	4	6	270	0.00	29.797 
18:00	60.7	60.7	60.7	41	36.9	3	7	270	0.00	29.799 
18:05	60.9	60.9	60.9	40	36.4	3	5	270	0.00	29.799 
18:10	61.0	61.0	61.0	40	36.5	3	6	315	0.00	29.799 
18:15	60.9	60.9	60.9	39	35.8	4	10	338	0.00	29.805 
18:20	60.7	60.7	60.7	40	36.2	3	7	270	0.00	29.805 
18:25	60.7	60.7	60.7	40	36.2	3	5	315	0.00	29.805 
18:30	60.7	60.7	60.7	41	36.9	2	9	292	0.00	29.810 
18:35	60.5	60.5	60.5	41	36.7	2	5	270	0.00	29.810 
18:40	60.5	60.5	60.5	42	37.3	2	6	338	0.00	29.810 
18:45	60.5	60.5	60.5	43	37.9	2	5	270	0.00	29.805 
18:50	60.5	60.5	60.5	42	37.3	1	4	270	0.00	29.805 
18:55	60.9	60.9	60.9	41	37.0	1	3	270	0.00	29.805 
19:00	60.9	60.9	60.9	42	37.7	1	5	270	0.00	29.811 
19:05	60.7	60.7	60.7	41	36.9	2	4	338	0.00	29.811 
19:10	60.5	60.5	60.5	43	37.9	0	2	338	0.00	29.811 
19:15	60.5	60.5	60.5	43	37.9	0	4	338	0.00	29.804 
19:20	60.5	60.5	60.5	43	37.9	0	3	338	0.00	29.804 
19:25	60.5	60.5	60.5	43	37.9	0	2	338	0.00	29.804 
19:30	60.4	60.4	60.4	42	37.2	1	4	292	0.00	29.805 
19:35	60.4	60.4	60.4	43	37.8	0	2	315	0.00	29.805 
19:40	60.2	60.2	60.2	43	37.6	0	3	315	0.00	29.805 
19:45	60.1	60.1	60.1	44	38.1	0	1	315	0.00	29.804 
19:50	59.9	59.9	59.9	44	37.9	0	1	315	0.00	29.804 
19:55	59.6	59.6	59.6	45	38.2	0	1	315	0.00	29.804 
20:00	59.5	59.5	59.5	45	38.1	0	0	---	0.00	29.810 
20:05	59.5	59.5	59.5	45	38.1	0	1	315	0.00	29.810 
20:10	59.2	59.2	59.2	45	37.9	0	1	315	0.00	29.810 
20:15	59.0	59.0	59.0	46	38.2	0	0	---	0.00	29.812 
20:20	58.6	58.6	58.6	47	38.4	0	0	---	0.00	29.812 
20:25	58.1	58.1	58.1	47	38.0	0	0	---	0.00	29.812 
20:30	57.6	57.6	57.6	49	38.6	0	0	---	0.00	29.815 
20:35	56.9	56.9	56.9	51	39.0	0	0	---	0.00	29.815 
20:40	56.0	56.0	56.0	53	39.1	0	0	---	0.00	29.815 
20:45	55.4	55.4	55.4	54	39.0	0	0	---	0.00	29.818 
20:50	54.8	54.8	54.8	54	38.5	0	0	---	0.00	29.818 
20:55	54.4	54.4	54.4	55	38.6	0	0	---	0.00	29.818 
21:00	53.8	53.8	53.8	58	39.4	0	0	---	0.00	29.819 
21:05	53.3	53.3	53.3	58	38.9	0	0	---	0.00	29.819 
21:10	52.9	52.9	52.9	59	39.0	0	0	---	0.00	29.819 
21:15	52.5	52.5	52.5	60	39.0	0	0	---	0.00	29.815 
21:20	52.2	52.2	52.2	62	39.6	0	0	---	0.00	29.815 
21:25	51.7	51.7	51.7	62	39.1	0	0	---	0.00	29.815 
21:30	51.4	51.4	51.4	64	39.6	0	0	---	0.00	29.820 
21:35	51.0	51.0	51.0	64	39.3	0	0	---	0.00	29.820 
21:40	50.7	50.7	50.7	64	39.0	0	0	---	0.00	29.820 
21:45	50.4	50.4	50.4	65	39.1	0	0	---	0.00	29.831 
21:50	50.1	50.1	50.1	66	39.2	0	0	---	0.00	29.831 
21:55	49.8	49.8	49.8	67	39.3	0	0	---	0.00	29.831 
22:00	49.5	49.5	49.5	68	39.4	0	0	---	0.00	29.838 
22:05	49.4	49.4	49.4	70	40.0	0	0	---	0.00	29.838 
22:10	49.2	49.2	49.2	71	40.2	0	0	---	0.00	29.838 
22:15	49.4	49.4	49.4	72	40.8	0	0	---	0.00	29.835 
22:20	49.5	49.5	49.5	72	40.9	0	0	---	0.00	29.835 
22:25	49.5	49.5	49.5	72	40.9	0	0	---	0.00	29.835 
22:30	49.5	49.5	49.5	72	40.9	0	0	---	0.00	29.833 
22:35	49.6	49.6	49.6	72	40.9	0	0	---	0.00	29.833 
22:40	49.9	49.9	49.9	73	41.6	0	0	---	0.00	29.833 
22:45	50.1	50.1	50.1	73	41.8	0	0	---	0.00	29.834 
22:50	50.4	50.4	50.4	70	41.0	0	1	315	0.00	29.834 
22:55	50.7	50.7	50.7	69	40.9	0	0	---	0.00	29.834 
23:00	50.8	50.8	50.8	69	41.0	0	0	---	0.00	29.835 
23:05	51.0	51.0	51.0	68	40.8	0	0	---	0.00	29.835 
23:10	51.0	51.0	51.0	67	40.4	0	0	---	0.00	29.835 
23:15	51.1	51.1	51.1	66	40.1	0	0	---	0.00	29.831 
23:20	51.3	51.3	51.3	66	40.3	0	0	---	0.00	29.831 
23:25	51.3	51.3	51.3	65	39.9	0	0	---	0.00	29.831 
23:30	51.3	51.3	51.3	65	39.9	0	0	---	0.00	29.825 
23:35	51.1	51.1	51.1	65	39.7	0	0	---	0.00	29.825 
23:40	51.0	51.0	51.0	65	39.7	0	0	---	0.00	29.825 
23:45	51.0	51.0	51.0	65	39.7	0	0	---	0.00	29.821 
23:50	50.7	50.7	50.7	66	39.8	0	0	---	0.00	29.821 
23:55	50.4	50.4	50.4	67	39.9	0	0	---	0.00	29.821 

CoCoRaHS
IN-AL-39
A2 Web Hosting
Creative Commons License
GoDaddy
search engine by freefind advanced

loaded 2018-11-17 11:52:38 • last modified 2010-11-18 10:43:29
Privacy PolicyDisclaimer
• wx.awcolley.com is powered by PmWiki v.2002016 •
• all content (unless otherwise noted) © 2018 A W Colley